sensor_id;sensor_type;location;lat;lon;timestamp;P1;durP1;ratioP1;P2;durP2;ratioP2
29044;SDS011;16133;49.486;12.176;2023-05-07T00:00:07;10.75;;;6.38;;
29044;SDS011;16133;49.486;12.176;2023-05-07T00:02:34;10.27;;;6.82;;
29044;SDS011;16133;49.486;12.176;2023-05-07T00:05:00;9.25;;;6.63;;
29044;SDS011;16133;49.486;12.176;2023-05-07T00:07:27;14.45;;;7.93;;
29044;SDS011;16133;49.486;12.176;2023-05-07T00:09:52;11.88;;;7.15;;
29044;SDS011;16133;49.486;12.176;2023-05-07T00:12:18;12.35;;;7.78;;
29044;SDS011;16133;49.486;12.176;2023-05-07T00:14:43;12.90;;;7.50;;
29044;SDS011;16133;49.486;12.176;2023-05-07T00:17:08;12.45;;;6.95;;
29044;SDS011;16133;49.486;12.176;2023-05-07T00:19:34;11.77;;;6.50;;
29044;SDS011;16133;49.486;12.176;2023-05-07T00:21:59;12.45;;;7.28;;
29044;SDS011;16133;49.486;12.176;2023-05-07T00:24:25;10.95;;;6.78;;
29044;SDS011;16133;49.486;12.176;2023-05-07T00:26:53;12.52;;;7.50;;
29044;SDS011;16133;49.486;12.176;2023-05-07T00:29:19;12.73;;;7.47;;
29044;SDS011;16133;49.486;12.176;2023-05-07T00:31:45;15.77;;;8.73;;
29044;SDS011;16133;49.486;12.176;2023-05-07T00:34:10;11.77;;;7.18;;
29044;SDS011;16133;49.486;12.176;2023-05-07T00:36:35;13.02;;;7.72;;
29044;SDS011;16133;49.486;12.176;2023-05-07T00:39:01;11.93;;;8.20;;
29044;SDS011;16133;49.486;12.176;2023-05-07T00:41:28;14.98;;;9.00;;
29044;SDS011;16133;49.486;12.176;2023-05-07T00:43:54;12.25;;;8.23;;
29044;SDS011;16133;49.486;12.176;2023-05-07T00:46:22;11.02;;;7.40;;
29044;SDS011;16133;49.486;12.176;2023-05-07T00:48:49;13.52;;;8.30;;
29044;SDS011;16133;49.486;12.176;2023-05-07T00:51:15;14.48;;;8.43;;
29044;SDS011;16133;49.486;12.176;2023-05-07T00:53:42;14.68;;;9.25;;
29044;SDS011;16133;49.486;12.176;2023-05-07T00:56:07;15.88;;;9.13;;
29044;SDS011;16133;49.486;12.176;2023-05-07T00:58:33;14.35;;;8.80;;
29044;SDS011;16133;49.486;12.176;2023-05-07T01:00:59;13.85;;;8.00;;
29044;SDS011;16133;49.486;12.176;2023-05-07T01:03:25;13.85;;;9.13;;
29044;SDS011;16133;49.486;12.176;2023-05-07T01:05:50;14.57;;;8.07;;
29044;SDS011;16133;49.486;12.176;2023-05-07T01:08:18;15.10;;;9.23;;
29044;SDS011;16133;49.486;12.176;2023-05-07T01:10:44;13.40;;;8.85;;
29044;SDS011;16133;49.486;12.176;2023-05-07T01:13:11;14.13;;;8.85;;
29044;SDS011;16133;49.486;12.176;2023-05-07T01:15:47;17.60;;;10.45;;
29044;SDS011;16133;49.486;12.176;2023-05-07T01:18:16;14.90;;;9.88;;
29044;SDS011;16133;49.486;12.176;2023-05-07T01:20:41;16.05;;;9.52;;
29044;SDS011;16133;49.486;12.176;2023-05-07T01:23:07;15.50;;;9.18;;
29044;SDS011;16133;49.486;12.176;2023-05-07T01:25:34;15.02;;;9.30;;
29044;SDS011;16133;49.486;12.176;2023-05-07T01:28:00;16.42;;;9.80;;
29044;SDS011;16133;49.486;12.176;2023-05-07T01:30:26;19.60;;;9.85;;
29044;SDS011;16133;49.486;12.176;2023-05-07T01:33:09;17.08;;;10.75;;
29044;SDS011;16133;49.486;12.176;2023-05-07T01:35:39;17.92;;;10.38;;
29044;SDS011;16133;49.486;12.176;2023-05-07T01:38:07;19.27;;;10.70;;
29044;SDS011;16133;49.486;12.176;2023-05-07T01:40:33;21.40;;;10.50;;
29044;SDS011;16133;49.486;12.176;2023-05-07T01:42:59;19.45;;;9.48;;
29044;SDS011;16133;49.486;12.176;2023-05-07T01:45:26;18.60;;;11.45;;
29044;SDS011;16133;49.486;12.176;2023-05-07T01:47:53;17.92;;;10.07;;
29044;SDS011;16133;49.486;12.176;2023-05-07T01:50:19;18.63;;;11.43;;
29044;SDS011;16133;49.486;12.176;2023-05-07T01:52:45;14.90;;;9.70;;
29044;SDS011;16133;49.486;12.176;2023-05-07T01:55:12;17.98;;;10.85;;
29044;SDS011;16133;49.486;12.176;2023-05-07T01:57:37;16.70;;;9.77;;
29044;SDS011;16133;49.486;12.176;2023-05-07T02:00:03;20.95;;;11.20;;
29044;SDS011;16133;49.486;12.176;2023-05-07T02:02:30;19.60;;;11.45;;
29044;SDS011;16133;49.486;12.176;2023-05-07T02:04:55;20.10;;;11.80;;
29044;SDS011;16133;49.486;12.176;2023-05-07T02:07:21;21.15;;;12.02;;
29044;SDS011;16133;49.486;12.176;2023-05-07T02:09:47;21.08;;;11.85;;
29044;SDS011;16133;49.486;12.176;2023-05-07T02:12:12;17.30;;;10.48;;
29044;SDS011;16133;49.486;12.176;2023-05-07T02:14:38;19.33;;;11.75;;
29044;SDS011;16133;49.486;12.176;2023-05-07T02:17:03;21.00;;;11.15;;
29044;SDS011;16133;49.486;12.176;2023-05-07T02:19:28;22.08;;;11.05;;
29044;SDS011;16133;49.486;12.176;2023-05-07T02:21:53;17.20;;;10.70;;
29044;SDS011;16133;49.486;12.176;2023-05-07T02:24:19;18.23;;;10.43;;
29044;SDS011;16133;49.486;12.176;2023-05-07T02:26:44;18.13;;;10.32;;
29044;SDS011;16133;49.486;12.176;2023-05-07T02:29:10;32.10;;;15.60;;
29044;SDS011;16133;49.486;12.176;2023-05-07T02:31:35;28.80;;;15.73;;
29044;SDS011;16133;49.486;12.176;2023-05-07T02:34:01;29.65;;;16.33;;
29044;SDS011;16133;49.486;12.176;2023-05-07T02:36:26;31.27;;;16.23;;
29044;SDS011;16133;49.486;12.176;2023-05-07T02:38:52;27.60;;;14.82;;
29044;SDS011;16133;49.486;12.176;2023-05-07T02:41:17;28.58;;;15.57;;
29044;SDS011;16133;49.486;12.176;2023-05-07T02:43:42;25.60;;;13.65;;
29044;SDS011;16133;49.486;12.176;2023-05-07T02:46:08;21.80;;;12.45;;
29044;SDS011;16133;49.486;12.176;2023-05-07T02:48:34;21.90;;;12.43;;
29044;SDS011;16133;49.486;12.176;2023-05-07T02:51:00;22.45;;;12.15;;
29044;SDS011;16133;49.486;12.176;2023-05-07T02:53:26;19.50;;;11.30;;
29044;SDS011;16133;49.486;12.176;2023-05-07T02:55:52;21.48;;;11.48;;
29044;SDS011;16133;49.486;12.176;2023-05-07T02:58:18;23.58;;;12.23;;
29044;SDS011;16133;49.486;12.176;2023-05-07T03:00:43;21.75;;;11.48;;
29044;SDS011;16133;49.486;12.176;2023-05-07T03:03:09;21.65;;;12.20;;
29044;SDS011;16133;49.486;12.176;2023-05-07T03:05:35;18.05;;;11.15;;
29044;SDS011;16133;49.486;12.176;2023-05-07T03:08:01;16.55;;;10.48;;
29044;SDS011;16133;49.486;12.176;2023-05-07T03:10:27;19.55;;;11.20;;
29044;SDS011;16133;49.486;12.176;2023-05-07T03:12:52;15.82;;;9.77;;
29044;SDS011;16133;49.486;12.176;2023-05-07T03:15:17;19.25;;;11.10;;
29044;SDS011;16133;49.486;12.176;2023-05-07T03:17:43;20.48;;;11.38;;
29044;SDS011;16133;49.486;12.176;2023-05-07T03:20:08;18.42;;;10.90;;
29044;SDS011;16133;49.486;12.176;2023-05-07T03:22:34;17.63;;;10.57;;
29044;SDS011;16133;49.486;12.176;2023-05-07T03:25:00;21.52;;;12.50;;
29044;SDS011;16133;49.486;12.176;2023-05-07T03:27:25;22.50;;;13.05;;
29044;SDS011;16133;49.486;12.176;2023-05-07T03:29:50;24.33;;;14.50;;
29044;SDS011;16133;49.486;12.176;2023-05-07T03:32:16;22.30;;;12.68;;
29044;SDS011;16133;49.486;12.176;2023-05-07T03:34:41;21.75;;;12.73;;
29044;SDS011;16133;49.486;12.176;2023-05-07T03:37:06;25.67;;;12.93;;
29044;SDS011;16133;49.486;12.176;2023-05-07T03:39:32;22.88;;;12.80;;
29044;SDS011;16133;49.486;12.176;2023-05-07T03:41:57;33.15;;;18.02;;
29044;SDS011;16133;49.486;12.176;2023-05-07T03:44:23;26.55;;;14.52;;
29044;SDS011;16133;49.486;12.176;2023-05-07T03:46:48;26.05;;;14.48;;
29044;SDS011;16133;49.486;12.176;2023-05-07T03:49:14;30.17;;;15.85;;
29044;SDS011;16133;49.486;12.176;2023-05-07T03:51:39;27.05;;;14.80;;
29044;SDS011;16133;49.486;12.176;2023-05-07T03:54:04;29.50;;;14.70;;
29044;SDS011;16133;49.486;12.176;2023-05-07T03:56:30;28.73;;;14.60;;
29044;SDS011;16133;49.486;12.176;2023-05-07T03:59:00;29.05;;;15.70;;
29044;SDS011;16133;49.486;12.176;2023-05-07T04:01:26;26.83;;;14.63;;
29044;SDS011;16133;49.486;12.176;2023-05-07T04:03:51;25.10;;;12.98;;
29044;SDS011;16133;49.486;12.176;2023-05-07T04:06:17;22.33;;;13.18;;
29044;SDS011;16133;49.486;12.176;2023-05-07T04:08:42;23.65;;;13.77;;
29044;SDS011;16133;49.486;12.176;2023-05-07T04:11:08;23.38;;;13.00;;
29044;SDS011;16133;49.486;12.176;2023-05-07T04:13:33;24.08;;;12.65;;
29044;SDS011;16133;49.486;12.176;2023-05-07T04:16:00;22.35;;;13.20;;
29044;SDS011;16133;49.486;12.176;2023-05-07T04:18:27;26.92;;;14.13;;
29044;SDS011;16133;49.486;12.176;2023-05-07T04:20:52;21.98;;;13.80;;
29044;SDS011;16133;49.486;12.176;2023-05-07T04:23:18;24.30;;;12.98;;
29044;SDS011;16133;49.486;12.176;2023-05-07T04:25:43;24.30;;;13.88;;
29044;SDS011;16133;49.486;12.176;2023-05-07T04:28:08;24.02;;;13.68;;
29044;SDS011;16133;49.486;12.176;2023-05-07T04:30:34;21.27;;;12.27;;
29044;SDS011;16133;49.486;12.176;2023-05-07T04:32:59;23.92;;;13.02;;
29044;SDS011;16133;49.486;12.176;2023-05-07T04:35:25;21.00;;;13.10;;
29044;SDS011;16133;49.486;12.176;2023-05-07T04:37:50;22.60;;;12.43;;
29044;SDS011;16133;49.486;12.176;2023-05-07T04:40:18;20.38;;;11.52;;
29044;SDS011;16133;49.486;12.176;2023-05-07T04:42:44;23.40;;;12.80;;
29044;SDS011;16133;49.486;12.176;2023-05-07T04:45:09;21.80;;;11.85;;
29044;SDS011;16133;49.486;12.176;2023-05-07T04:47:35;20.83;;;11.77;;
29044;SDS011;16133;49.486;12.176;2023-05-07T04:50:01;22.90;;;12.45;;
29044;SDS011;16133;49.486;12.176;2023-05-07T04:52:27;21.13;;;11.52;;
29044;SDS011;16133;49.486;12.176;2023-05-07T04:54:52;18.77;;;11.38;;
29044;SDS011;16133;49.486;12.176;2023-05-07T04:57:18;21.15;;;12.10;;
29044;SDS011;16133;49.486;12.176;2023-05-07T04:59:43;21.20;;;12.75;;
29044;SDS011;16133;49.486;12.176;2023-05-07T05:02:12;23.52;;;12.38;;
29044;SDS011;16133;49.486;12.176;2023-05-07T05:04:41;23.90;;;12.45;;
29044;SDS011;16133;49.486;12.176;2023-05-07T05:07:06;17.60;;;11.73;;
29044;SDS011;16133;49.486;12.176;2023-05-07T05:09:32;19.83;;;11.23;;
29044;SDS011;16133;49.486;12.176;2023-05-07T05:11:57;17.48;;;10.85;;
29044;SDS011;16133;49.486;12.176;2023-05-07T05:14:24;15.88;;;9.90;;
29044;SDS011;16133;49.486;12.176;2023-05-07T05:16:49;22.75;;;11.80;;
29044;SDS011;16133;49.486;12.176;2023-05-07T05:19:15;18.10;;;10.57;;
29044;SDS011;16133;49.486;12.176;2023-05-07T05:21:40;19.23;;;11.07;;
29044;SDS011;16133;49.486;12.176;2023-05-07T05:24:06;15.43;;;9.70;;
29044;SDS011;16133;49.486;12.176;2023-05-07T05:26:31;19.52;;;10.70;;
29044;SDS011;16133;49.486;12.176;2023-05-07T05:28:57;15.57;;;10.27;;
29044;SDS011;16133;49.486;12.176;2023-05-07T05:31:22;14.02;;;9.50;;
29044;SDS011;16133;49.486;12.176;2023-05-07T05:33:48;17.10;;;10.57;;
29044;SDS011;16133;49.486;12.176;2023-05-07T05:36:13;15.15;;;9.98;;
29044;SDS011;16133;49.486;12.176;2023-05-07T05:38:39;14.55;;;9.25;;
29044;SDS011;16133;49.486;12.176;2023-05-07T05:41:05;16.23;;;9.52;;
29044;SDS011;16133;49.486;12.176;2023-05-07T05:43:30;15.85;;;9.52;;
29044;SDS011;16133;49.486;12.176;2023-05-07T05:45:56;16.52;;;9.52;;
29044;SDS011;16133;49.486;12.176;2023-05-07T05:48:23;16.88;;;10.25;;
29044;SDS011;16133;49.486;12.176;2023-05-07T05:50:48;14.13;;;9.10;;
29044;SDS011;16133;49.486;12.176;2023-05-07T05:53:14;15.80;;;10.75;;
29044;SDS011;16133;49.486;12.176;2023-05-07T05:55:40;17.67;;;10.15;;
29044;SDS011;16133;49.486;12.176;2023-05-07T05:58:06;19.23;;;11.10;;
29044;SDS011;16133;49.486;12.176;2023-05-07T06:00:32;17.30;;;11.40;;
29044;SDS011;16133;49.486;12.176;2023-05-07T06:02:57;18.98;;;11.60;;
29044;SDS011;16133;49.486;12.176;2023-05-07T06:05:23;17.73;;;11.50;;
29044;SDS011;16133;49.486;12.176;2023-05-07T06:07:48;17.00;;;11.05;;
29044;SDS011;16133;49.486;12.176;2023-05-07T06:10:14;19.50;;;11.73;;
29044;SDS011;16133;49.486;12.176;2023-05-07T06:12:39;21.17;;;11.73;;
29044;SDS011;16133;49.486;12.176;2023-05-07T06:15:05;22.20;;;10.80;;
29044;SDS011;16133;49.486;12.176;2023-05-07T06:17:31;21.10;;;10.98;;
29044;SDS011;16133;49.486;12.176;2023-05-07T06:19:56;21.95;;;11.65;;
29044;SDS011;16133;49.486;12.176;2023-05-07T06:22:22;22.48;;;12.02;;
29044;SDS011;16133;49.486;12.176;2023-05-07T06:24:47;20.08;;;11.35;;
29044;SDS011;16133;49.486;12.176;2023-05-07T06:27:13;19.15;;;11.00;;
29044;SDS011;16133;49.486;12.176;2023-05-07T06:29:39;20.35;;;11.82;;
29044;SDS011;16133;49.486;12.176;2023-05-07T06:32:09;20.75;;;11.40;;
29044;SDS011;16133;49.486;12.176;2023-05-07T06:34:36;18.20;;;11.10;;
29044;SDS011;16133;49.486;12.176;2023-05-07T06:37:02;20.30;;;12.05;;
29044;SDS011;16133;49.486;12.176;2023-05-07T06:39:27;17.55;;;9.60;;
29044;SDS011;16133;49.486;12.176;2023-05-07T06:41:53;20.65;;;11.77;;
29044;SDS011;16133;49.486;12.176;2023-05-07T06:44:19;18.30;;;10.90;;
29044;SDS011;16133;49.486;12.176;2023-05-07T06:46:44;19.40;;;10.82;;
29044;SDS011;16133;49.486;12.176;2023-05-07T06:49:10;20.92;;;11.35;;
29044;SDS011;16133;49.486;12.176;2023-05-07T06:51:37;22.95;;;11.23;;
29044;SDS011;16133;49.486;12.176;2023-05-07T06:54:02;16.92;;;10.55;;
29044;SDS011;16133;49.486;12.176;2023-05-07T06:56:29;18.17;;;9.55;;
29044;SDS011;16133;49.486;12.176;2023-05-07T06:58:55;19.33;;;11.82;;
29044;SDS011;16133;49.486;12.176;2023-05-07T07:01:21;17.23;;;10.10;;
29044;SDS011;16133;49.486;12.176;2023-05-07T07:03:46;19.20;;;11.02;;
29044;SDS011;16133;49.486;12.176;2023-05-07T07:06:12;18.83;;;10.90;;
29044;SDS011;16133;49.486;12.176;2023-05-07T07:08:38;17.88;;;10.15;;
29044;SDS011;16133;49.486;12.176;2023-05-07T07:11:06;18.65;;;9.38;;
29044;SDS011;16133;49.486;12.176;2023-05-07T07:13:31;16.77;;;10.02;;
29044;SDS011;16133;49.486;12.176;2023-05-07T07:15:57;18.08;;;10.10;;
29044;SDS011;16133;49.486;12.176;2023-05-07T07:18:23;17.35;;;10.50;;
29044;SDS011;16133;49.486;12.176;2023-05-07T07:20:48;18.05;;;9.80;;
29044;SDS011;16133;49.486;12.176;2023-05-07T07:23:14;19.35;;;10.48;;
29044;SDS011;16133;49.486;12.176;2023-05-07T07:25:39;19.75;;;10.45;;
29044;SDS011;16133;49.486;12.176;2023-05-07T07:28:05;19.02;;;10.23;;
29044;SDS011;16133;49.486;12.176;2023-05-07T07:30:31;20.42;;;11.20;;
29044;SDS011;16133;49.486;12.176;2023-05-07T07:32:56;19.10;;;10.70;;
29044;SDS011;16133;49.486;12.176;2023-05-07T07:35:27;15.85;;;10.15;;
29044;SDS011;16133;49.486;12.176;2023-05-07T07:37:53;16.80;;;10.00;;
29044;SDS011;16133;49.486;12.176;2023-05-07T07:40:18;19.00;;;10.43;;
29044;SDS011;16133;49.486;12.176;2023-05-07T07:42:44;17.52;;;9.70;;
29044;SDS011;16133;49.486;12.176;2023-05-07T07:45:09;15.32;;;9.75;;
29044;SDS011;16133;49.486;12.176;2023-05-07T07:47:35;16.98;;;10.15;;
29044;SDS011;16133;49.486;12.176;2023-05-07T07:50:00;17.63;;;9.38;;
29044;SDS011;16133;49.486;12.176;2023-05-07T07:52:26;17.85;;;9.75;;
29044;SDS011;16133;49.486;12.176;2023-05-07T07:54:51;16.15;;;9.68;;
29044;SDS011;16133;49.486;12.176;2023-05-07T07:57:16;18.60;;;10.30;;
29044;SDS011;16133;49.486;12.176;2023-05-07T07:59:42;19.95;;;10.70;;
29044;SDS011;16133;49.486;12.176;2023-05-07T08:02:08;17.08;;;10.27;;
29044;SDS011;16133;49.486;12.176;2023-05-07T08:04:34;16.25;;;9.45;;
29044;SDS011;16133;49.486;12.176;2023-05-07T08:07:00;21.15;;;10.48;;
29044;SDS011;16133;49.486;12.176;2023-05-07T08:09:25;16.35;;;9.73;;
29044;SDS011;16133;49.486;12.176;2023-05-07T08:11:51;16.35;;;9.63;;
29044;SDS011;16133;49.486;12.176;2023-05-07T08:14:16;17.08;;;10.40;;
29044;SDS011;16133;49.486;12.176;2023-05-07T08:16:41;16.08;;;10.10;;
29044;SDS011;16133;49.486;12.176;2023-05-07T08:19:07;16.38;;;9.63;;
29044;SDS011;16133;49.486;12.176;2023-05-07T08:21:32;15.60;;;9.63;;
29044;SDS011;16133;49.486;12.176;2023-05-07T08:23:57;17.77;;;10.23;;
29044;SDS011;16133;49.486;12.176;2023-05-07T08:26:23;16.40;;;8.43;;
29044;SDS011;16133;49.486;12.176;2023-05-07T08:28:48;17.15;;;9.25;;
29044;SDS011;16133;49.486;12.176;2023-05-07T08:31:14;13.45;;;8.80;;
29044;SDS011;16133;49.486;12.176;2023-05-07T08:33:39;14.93;;;9.65;;
29044;SDS011;16133;49.486;12.176;2023-05-07T08:36:05;14.65;;;9.00;;
29044;SDS011;16133;49.486;12.176;2023-05-07T08:38:30;14.82;;;9.75;;
29044;SDS011;16133;49.486;12.176;2023-05-07T08:40:56;14.13;;;8.48;;
29044;SDS011;16133;49.486;12.176;2023-05-07T08:43:21;14.05;;;8.32;;
29044;SDS011;16133;49.486;12.176;2023-05-07T08:45:51;14.35;;;9.02;;
29044;SDS011;16133;49.486;12.176;2023-05-07T08:48:19;13.75;;;8.77;;
29044;SDS011;16133;49.486;12.176;2023-05-07T08:50:48;16.45;;;8.95;;
29044;SDS011;16133;49.486;12.176;2023-05-07T08:53:14;15.45;;;8.45;;
29044;SDS011;16133;49.486;12.176;2023-05-07T08:55:41;14.35;;;9.00;;
29044;SDS011;16133;49.486;12.176;2023-05-07T08:58:06;13.48;;;7.90;;
29044;SDS011;16133;49.486;12.176;2023-05-07T09:00:32;13.05;;;7.63;;
29044;SDS011;16133;49.486;12.176;2023-05-07T09:03:00;11.73;;;8.20;;
29044;SDS011;16133;49.486;12.176;2023-05-07T09:05:26;16.17;;;8.55;;
29044;SDS011;16133;49.486;12.176;2023-05-07T09:07:51;14.25;;;9.60;;
29044;SDS011;16133;49.486;12.176;2023-05-07T09:10:17;16.67;;;8.43;;
29044;SDS011;16133;49.486;12.176;2023-05-07T09:12:42;11.75;;;7.97;;
29044;SDS011;16133;49.486;12.176;2023-05-07T09:15:07;15.35;;;8.85;;
29044;SDS011;16133;49.486;12.176;2023-05-07T09:17:33;14.45;;;8.68;;
29044;SDS011;16133;49.486;12.176;2023-05-07T09:20:02;13.10;;;9.13;;
29044;SDS011;16133;49.486;12.176;2023-05-07T09:22:31;12.40;;;8.50;;
29044;SDS011;16133;49.486;12.176;2023-05-07T09:25:01;12.85;;;7.63;;
29044;SDS011;16133;49.486;12.176;2023-05-07T09:27:27;11.80;;;7.97;;
29044;SDS011;16133;49.486;12.176;2023-05-07T09:29:52;13.98;;;9.13;;
29044;SDS011;16133;49.486;12.176;2023-05-07T09:32:18;11.15;;;7.97;;
29044;SDS011;16133;49.486;12.176;2023-05-07T09:34:43;15.07;;;9.30;;
29044;SDS011;16133;49.486;12.176;2023-05-07T09:37:09;14.45;;;9.10;;
29044;SDS011;16133;49.486;12.176;2023-05-07T09:39:44;12.07;;;8.18;;
29044;SDS011;16133;49.486;12.176;2023-05-07T09:42:11;11.70;;;6.75;;
29044;SDS011;16133;49.486;12.176;2023-05-07T09:44:37;10.93;;;8.07;;
29044;SDS011;16133;49.486;12.176;2023-05-07T09:47:06;10.65;;;8.05;;
29044;SDS011;16133;49.486;12.176;2023-05-07T09:49:36;12.25;;;7.65;;
29044;SDS011;16133;49.486;12.176;2023-05-07T09:52:05;12.63;;;7.40;;
29044;SDS011;16133;49.486;12.176;2023-05-07T09:54:33;13.13;;;7.45;;
29044;SDS011;16133;49.486;12.176;2023-05-07T09:57:00;11.38;;;7.63;;
29044;SDS011;16133;49.486;12.176;2023-05-07T09:59:28;11.70;;;7.72;;
29044;SDS011;16133;49.486;12.176;2023-05-07T10:01:56;15.15;;;7.47;;
29044;SDS011;16133;49.486;12.176;2023-05-07T10:04:23;13.07;;;7.70;;
29044;SDS011;16133;49.486;12.176;2023-05-07T10:06:50;13.40;;;7.40;;
29044;SDS011;16133;49.486;12.176;2023-05-07T10:09:15;12.10;;;7.75;;
29044;SDS011;16133;49.486;12.176;2023-05-07T10:11:41;10.98;;;7.22;;
29044;SDS011;16133;49.486;12.176;2023-05-07T10:14:08;13.32;;;7.60;;
29044;SDS011;16133;49.486;12.176;2023-05-07T10:16:35;13.30;;;7.28;;
29044;SDS011;16133;49.486;12.176;2023-05-07T10:19:05;10.77;;;7.00;;
29044;SDS011;16133;49.486;12.176;2023-05-07T10:21:32;11.05;;;7.38;;
29044;SDS011;16133;49.486;12.176;2023-05-07T10:24:13;9.88;;;6.82;;
29044;SDS011;16133;49.486;12.176;2023-05-07T10:26:45;13.55;;;8.25;;
29044;SDS011;16133;49.486;12.176;2023-05-07T10:29:17;11.48;;;7.30;;
29044;SDS011;16133;49.486;12.176;2023-05-07T10:34:37;10.05;;;6.35;;
29044;SDS011;16133;49.486;12.176;2023-05-07T10:37:06;11.13;;;6.85;;
29044;SDS011;16133;49.486;12.176;2023-05-07T10:39:34;8.38;;;6.75;;
29044;SDS011;16133;49.486;12.176;2023-05-07T10:42:12;9.77;;;7.00;;
29044;SDS011;16133;49.486;12.176;2023-05-07T10:44:39;9.55;;;6.65;;
29044;SDS011;16133;49.486;12.176;2023-05-07T10:47:09;9.27;;;6.15;;
29044;SDS011;16133;49.486;12.176;2023-05-07T10:49:35;11.38;;;6.88;;
29044;SDS011;16133;49.486;12.176;2023-05-07T10:52:19;10.23;;;7.13;;
29044;SDS011;16133;49.486;12.176;2023-05-07T10:54:48;11.02;;;7.28;;
29044;SDS011;16133;49.486;12.176;2023-05-07T10:57:46;9.07;;;5.90;;
29044;SDS011;16133;49.486;12.176;2023-05-07T11:05:23;8.90;;;5.47;;
29044;SDS011;16133;49.486;12.176;2023-05-07T11:08:02;8.48;;;6.00;;
29044;SDS011;16133;49.486;12.176;2023-05-07T11:13:12;7.57;;;5.15;;
29044;SDS011;16133;49.486;12.176;2023-05-07T11:15:40;8.63;;;5.00;;
29044;SDS011;16133;49.486;12.176;2023-05-07T11:18:08;9.65;;;5.88;;
29044;SDS011;16133;49.486;12.176;2023-05-07T11:26:08;8.15;;;4.97;;
29044;SDS011;16133;49.486;12.176;2023-05-07T11:28:41;8.77;;;5.30;;
29044;SDS011;16133;49.486;12.176;2023-05-07T11:31:08;11.00;;;6.28;;
29044;SDS011;16133;49.486;12.176;2023-05-07T11:33:34;7.82;;;5.35;;
29044;SDS011;16133;49.486;12.176;2023-05-07T11:36:04;6.88;;;4.68;;
29044;SDS011;16133;49.486;12.176;2023-05-07T11:38:30;8.55;;;6.32;;
29044;SDS011;16133;49.486;12.176;2023-05-07T11:40:59;10.85;;;6.75;;
29044;SDS011;16133;49.486;12.176;2023-05-07T11:43:30;8.60;;;6.85;;
29044;SDS011;16133;49.486;12.176;2023-05-07T11:46:04;9.63;;;6.13;;
29044;SDS011;16133;49.486;12.176;2023-05-07T11:48:33;11.02;;;6.63;;
29044;SDS011;16133;49.486;12.176;2023-05-07T11:51:00;10.00;;;6.25;;
29044;SDS011;16133;49.486;12.176;2023-05-07T11:53:48;7.25;;;6.03;;
29044;SDS011;16133;49.486;12.176;2023-05-07T11:56:14;8.90;;;7.20;;
29044;SDS011;16133;49.486;12.176;2023-05-07T11:58:41;8.15;;;6.10;;
29044;SDS011;16133;49.486;12.176;2023-05-07T12:01:11;9.32;;;6.75;;
29044;SDS011;16133;49.486;12.176;2023-05-07T12:03:41;10.63;;;6.85;;
29044;SDS011;16133;49.486;12.176;2023-05-07T12:06:09;11.30;;;6.60;;
29044;SDS011;16133;49.486;12.176;2023-05-07T12:08:38;10.55;;;6.35;;
29044;SDS011;16133;49.486;12.176;2023-05-07T12:11:24;8.20;;;6.43;;
29044;SDS011;16133;49.486;12.176;2023-05-07T12:13:50;9.35;;;5.97;;
29044;SDS011;16133;49.486;12.176;2023-05-07T12:16:16;7.50;;;5.53;;
29044;SDS011;16133;49.486;12.176;2023-05-07T12:18:42;7.55;;;5.25;;
29044;SDS011;16133;49.486;12.176;2023-05-07T12:21:09;8.20;;;5.55;;
29044;SDS011;16133;49.486;12.176;2023-05-07T12:23:36;9.40;;;6.30;;
29044;SDS011;16133;49.486;12.176;2023-05-07T12:26:02;8.90;;;5.82;;
29044;SDS011;16133;49.486;12.176;2023-05-07T12:28:27;7.53;;;5.38;;
29044;SDS011;16133;49.486;12.176;2023-05-07T12:30:53;7.35;;;5.05;;
29044;SDS011;16133;49.486;12.176;2023-05-07T12:33:22;10.07;;;6.40;;
29044;SDS011;16133;49.486;12.176;2023-05-07T12:35:49;6.20;;;4.80;;
29044;SDS011;16133;49.486;12.176;2023-05-07T12:38:16;9.52;;;5.05;;
29044;SDS011;16133;49.486;12.176;2023-05-07T12:40:46;9.13;;;5.20;;
29044;SDS011;16133;49.486;12.176;2023-05-07T12:43:19;7.30;;;5.45;;
29044;SDS011;16133;49.486;12.176;2023-05-07T12:45:46;8.70;;;5.38;;
29044;SDS011;16133;49.486;12.176;2023-05-07T12:48:13;7.07;;;4.70;;
29044;SDS011;16133;49.486;12.176;2023-05-07T12:50:38;7.78;;;5.32;;
29044;SDS011;16133;49.486;12.176;2023-05-07T12:53:04;7.07;;;4.80;;
29044;SDS011;16133;49.486;12.176;2023-05-07T12:55:31;6.97;;;4.43;;
29044;SDS011;16133;49.486;12.176;2023-05-07T12:57:57;7.03;;;4.90;;
29044;SDS011;16133;49.486;12.176;2023-05-07T13:00:33;7.88;;;4.95;;
29044;SDS011;16133;49.486;12.176;2023-05-07T13:03:00;7.05;;;4.75;;
29044;SDS011;16133;49.486;12.176;2023-05-07T13:05:25;11.80;;;5.47;;
29044;SDS011;16133;49.486;12.176;2023-05-07T13:07:54;6.25;;;4.60;;
29044;SDS011;16133;49.486;12.176;2023-05-07T13:10:21;5.72;;;4.32;;
29044;SDS011;16133;49.486;12.176;2023-05-07T13:12:47;9.02;;;5.20;;
29044;SDS011;16133;49.486;12.176;2023-05-07T13:15:13;7.43;;;4.38;;
29044;SDS011;16133;49.486;12.176;2023-05-07T13:17:38;7.30;;;4.72;;
29044;SDS011;16133;49.486;12.176;2023-05-07T13:20:04;8.23;;;4.72;;
29044;SDS011;16133;49.486;12.176;2023-05-07T13:22:30;7.45;;;4.63;;
29044;SDS011;16133;49.486;12.176;2023-05-07T13:24:56;7.55;;;4.45;;
29044;SDS011;16133;49.486;12.176;2023-05-07T13:27:21;10.07;;;4.25;;
29044;SDS011;16133;49.486;12.176;2023-05-07T13:29:47;5.95;;;3.67;;
29044;SDS011;16133;49.486;12.176;2023-05-07T13:32:15;7.13;;;3.85;;
29044;SDS011;16133;49.486;12.176;2023-05-07T13:34:41;6.18;;;3.80;;
29044;SDS011;16133;49.486;12.176;2023-05-07T13:37:06;9.77;;;3.92;;
29044;SDS011;16133;49.486;12.176;2023-05-07T13:39:32;6.90;;;4.18;;
29044;SDS011;16133;49.486;12.176;2023-05-07T13:41:58;5.47;;;3.78;;
29044;SDS011;16133;49.486;12.176;2023-05-07T13:44:23;6.70;;;4.72;;
29044;SDS011;16133;49.486;12.176;2023-05-07T13:46:49;5.43;;;4.20;;
29044;SDS011;16133;49.486;12.176;2023-05-07T13:49:15;7.22;;;4.53;;
29044;SDS011;16133;49.486;12.176;2023-05-07T13:51:40;7.25;;;5.00;;
29044;SDS011;16133;49.486;12.176;2023-05-07T13:54:05;5.95;;;3.75;;
29044;SDS011;16133;49.486;12.176;2023-05-07T13:56:31;5.60;;;3.70;;
29044;SDS011;16133;49.486;12.176;2023-05-07T13:58:57;5.13;;;4.07;;
29044;SDS011;16133;49.486;12.176;2023-05-07T14:01:23;7.93;;;4.72;;
29044;SDS011;16133;49.486;12.176;2023-05-07T14:03:48;7.00;;;3.83;;
29044;SDS011;16133;49.486;12.176;2023-05-07T14:06:14;6.13;;;4.13;;
29044;SDS011;16133;49.486;12.176;2023-05-07T14:08:39;5.15;;;3.05;;
29044;SDS011;16133;49.486;12.176;2023-05-07T14:11:04;3.92;;;3.10;;
29044;SDS011;16133;49.486;12.176;2023-05-07T14:13:30;5.80;;;3.75;;
29044;SDS011;16133;49.486;12.176;2023-05-07T14:15:56;8.30;;;4.65;;
29044;SDS011;16133;49.486;12.176;2023-05-07T14:18:23;6.45;;;4.07;;
29044;SDS011;16133;49.486;12.176;2023-05-07T14:20:48;4.55;;;3.47;;
29044;SDS011;16133;49.486;12.176;2023-05-07T14:23:14;4.55;;;3.50;;
29044;SDS011;16133;49.486;12.176;2023-05-07T14:25:41;6.95;;;4.43;;
29044;SDS011;16133;49.486;12.176;2023-05-07T14:28:08;7.00;;;4.20;;
29044;SDS011;16133;49.486;12.176;2023-05-07T14:30:34;7.57;;;4.78;;